Station: Forrest

  Atmospheric Gas Attenuation - ITU Rec 676-11   --------------- db/100km ---------------
Date Time Temp RH % AH g/m3 Dew Point Wind Direction Speed kph Gust kph Barometer mB Rainfall Since 9am 24GHz 47GHz 76GHz 122GHz 134GHz 241GHz
04 04:10 11.8 59 6.21 4.1 22 26 1008.6 0 14.6 22.5 31.2 81.6 69.7 237.6
04 04:00 12 58 6.18 4 24 35 1008.5 0 14.5 22.4 31.0 81.1 69.1 235.7
04 03:40 11.9 58 6.14 3.9 35 39 1007.8 0 14.4 22.4 30.9 80.7 68.7 234.1
04 03:30 11.8 58 6.11 3.8 32 37 1008 0 14.4 22.3 30.8 80.5 68.4 233.2
04 03:20 11.9 58 6.14 3.9 32 35 1007.9 0 14.4 22.4 30.9 80.7 68.7 234.2
04 03:10 12 58 6.18 4 35 39 1008.1 0 14.5 22.4 31.0 81.0 69.1 235.6
04 03:00 11.8 58 6.11 3.8 35 43 1008.2 0 14.4 22.4 30.8 80.6 68.4 233.2
04 02:50 12 58 6.18 4 33 41 1008 0 14.5 22.4 31.0 81.0 69.1 235.6
04 02:40 11.9 57 6.04 3.7 32 37 1008.5 0 14.2 22.2 30.5 79.8 67.5 230.0
04 02:30 11.8 58 6.11 3.8 35 46 1008.3 0 14.4 22.4 30.8 80.6 68.4 233.2
04 02:20 12 57 6.08 3.8 35 41 1008.5 0 14.3 22.3 30.7 80.1 67.9 231.4
04 02:10 12.1 57 6.11 3.9 33 37 1008.6 0 14.4 22.3 30.7 80.3 68.2 232.4
04 02:00 12.3 56 6.08 3.8 33 41 1008.7 0 14.3 22.2 30.6 79.8 67.6 230.6
04 01:50 12.3 56 6.08 3.8 35 39 1009.1 0 14.3 22.2 30.6 79.8 67.7 230.7
04 01:30 12.6 56 6.2 4.1 32 39 1009.3 0 14.5 22.3 30.9 80.7 68.9 235.0
04 01:20 12.6 56 6.2 4.1 32 35 1009.3 0 14.5 22.3 30.9 80.7 68.9 235.0
04 01:10 12.7 56 6.23 4.2 33 39 1009.3 0 14.6 22.4 31.0 80.9 69.2 236.0
04 01:00 12.9 56 6.31 4.3 35 43 1009.4 0 14.7 22.4 31.2 81.5 70.0 238.8
04 00:50 13 56 6.35 4.4 37 41 1009.6 0 14.8 22.5 31.3 81.8 70.4 240.3
04 00:40 13.3 56 6.47 4.7 37 41 1009.7 0 15.1 22.6 31.6 82.7 71.6 244.5
04 00:30 13.2 58 6.66 5.1 33 41 1009.6 0 15.5 22.9 32.4 84.7 74.0 253.0
04 00:20 13.2 60 6.89 5.6 37 41 1009.5 0 16.0 23.2 33.3 87.0 76.9 263.0
04 00:10 13 62 7.03 5.9 32 35 1009.8 0 16.3 23.5 33.9 88.7 78.8 269.8
04 00:00 13.1 63 7.19 6.2 37 50 1009.8 0 16.6 23.7 34.4 90.2 80.7 276.6
03 23:50 13.2 65 7.46 6.8 37 41 1009.6 0 17.2 24.1 35.4 92.8 84.0 288.2
03 23:40 13.3 66 7.63 7.1 32 35 1010.2 0 17.5 24.4 36.1 94.5 86.1 295.5
03 23:30 13.4 66 7.67 7.2 28 37 1010 0 17.6 24.4 36.2 94.8 86.5 296.9
03 23:20 13.5 66 7.72 7.3 20 24 1010.6 0 17.7 24.5 36.3 95.3 87.1 298.9
03 23:10 13.4 68 7.91 7.6 30 37 1010.6 0 18.1 24.8 37.1 97.4 89.7 307.9
03 23:00 13.2 70 8.04 7.9 33 46 1010.3 0 18.4 25.1 37.7 99.0 91.6 314.5
03 22:50 13.2 71 8.15 8.1 35 39 1010.1 0 18.7 25.2 38.2 100.1 93.0 319.5
03 22:40 13.1 71 8.1 8 35 41 1010.1 0 18.6 25.2 38.0 99.7 92.4 317.6
03 22:30 13.2 72 8.27 8.3 39 48 1010 0 18.9 25.4 38.6 101.4 94.5 324.9
03 22:20 13.1 73 8.33 8.4 37 46 1010.1 0 19.0 25.5 38.9 102.1 95.5 328.1
03 22:10 13 73 8.28 8.3 35 39 1010.1 0 18.9 25.5 38.8 101.7 94.9 326.2
03 22:00 13 74 8.39 8.5 37 48 1010.1 0 19.2 25.7 39.2 102.9 96.4 331.3
03 21:50 13 74 8.39 8.5 35 44 1010.2 0 19.2 25.7 39.2 102.9 96.4 331.4
03 21:40 13 75 8.51 8.7 35 43 1010.3 0 19.4 25.9 39.7 104.2 98.0 337.0
03 21:30 13 75 8.51 8.7 35 44 1010.3 0 19.4 25.9 39.7 104.2 98.0 337.0
03 21:20 13.2 74 8.5 8.7 33 39 1010.3 0 19.4 25.8 39.6 103.9 97.6 335.6
03 21:10 13.4 74 8.6 8.9 39 44 1010.1 0 19.6 25.9 39.9 104.6 98.6 339.4
03 21:00 13.4 73 8.49 8.7 37 46 1010.1 0 19.4 25.7 39.4 103.5 97.2 334.3
03 20:50 13.6 72 8.47 8.7 37 43 1010.2 0 19.3 25.6 39.2 103.0 96.7 332.5
03 20:40 13.8 71 8.46 8.6 37 46 1010.2 0 19.3 25.6 39.1 102.6 96.3 331.2
03 20:30 13.9 71 8.51 8.7 37 46 1010.2 0 19.4 25.6 39.3 103.0 96.8 333.1
03 20:20 14 70 8.44 8.6 33 39 1010.3 0 19.2 25.5 38.9 102.2 95.8 329.5
03 20:10 14.2 70 8.55 8.8 35 39 1010.4 0 19.5 25.6 39.3 103.1 97.0 333.7
03 20:00 14.3 70 8.6 8.9 37 48 1010.4 0 19.6 25.6 39.4 103.5 97.5 335.6
03 19:50 14.4 71 8.78 9.2 37 41 1010.3 0 19.9 25.9 40.1 105.3 99.8 343.4
03 19:40 14.7 70 8.81 9.3 41 44 1010.2 0 20.0 25.9 40.0 105.2 99.8 343.4
03 19:30 14.9 69 8.79 9.3 39 46 1010.1 0 19.9 25.8 39.9 104.7 99.2 341.6
03 19:20 15 69 8.85 9.4 39 43 1010.2 0 20.1 25.8 40.1 105.2 99.9 343.9
03 19:10 15.3 68 8.88 9.4 41 48 1010.1 0 20.1 25.8 40.0 105.1 99.9 344.0
03 19:00 15.4 67 8.8 9.3 41 52 1010 0 19.9 25.6 39.6 104.1 98.7 339.9
03 18:50 15.8 66 8.88 9.5 41 46 1009.9 0 20.1 25.6 39.8 104.4 99.2 341.7
03 18:40 16 65 8.86 9.4 43 48 1009.8 0 20.0 25.5 39.6 103.9 98.7 340.0
03 18:30 16.4 64 8.93 9.6 41 52 1009.7 0 20.2 25.5 39.6 104.1 99.1 341.4
03 18:20 16.7 63 8.95 9.6 35 39 1009.8 0 20.2 25.5 39.6 104.0 99.0 341.0
03 18:10 17 62 8.97 9.7 41 48 1009.7 0 20.2 25.4 39.5 103.8 98.9 340.6
03 18:00 17.4 61 9.04 9.8 39 48 1009.6 0 20.4 25.4 39.6 104.0 99.2 341.9
03 17:50 17.7 60 9.05 9.8 37 44 1009.6 0 20.4 25.4 39.5 103.7 99.0 341.1
03 17:40 18.2 58 9.01 9.8 43 50 1009.5 0 20.3 25.1 39.1 102.6 97.8 337.2
03 17:30 18.6 56 8.91 9.7 37 48 1009.5 0 20.0 24.9 38.5 101.1 96.1 331.1
03 17:20 19.2 54 8.9 9.7 44 50 1009.4 0 20.0 24.7 38.2 100.2 95.2 328.2
03 17:10 19.7 51 8.66 9.3 39 48 1009.4 0 19.4 24.2 37.0 97.2 91.7 315.8
03 17:00 20.5 46 8.18 8.5 35 48 1009.3 0 18.4 23.3 34.9 91.6 85.0 292.6
03 16:50 21.4 39 7.31 6.9 39 41 1009.3 0 16.5 21.8 31.5 82.4 74.1 254.2
03 16:40 22.6 20 4.02 -1.5 32 35 1009.3 0 9.6 17.3 20.6 53.3 38.5 129.2
03 16:30 23 19 3.9 -1.8 33 39 1009.3 0 9.4 17.1 20.2 52.1 37.1 124.5
03 16:20 23.6 19 4.04 -1.3 35 37 1009.3 0 9.6 17.1 20.4 52.9 38.2 128.4
03 16:10 23.9 18 3.89 -1.8 32 35 1009.5 0 9.3 16.9 19.9 51.5 36.7 122.9
03 16:00 24.2 18 3.96 -1.6 33 39 1009.5 0 9.5 16.9 20.1 51.9 37.2 124.8
03 15:50 24.1 18 3.94 -1.7 35 41 1009.5 0 9.4 16.9 20.0 51.8 37.1 124.3
03 15:40 24.9 18 4.12 -1 30 35 1009.5 0 9.8 17.0 20.4 52.7 38.4 129.2
03 15:30 24.7 19 4.3 -0.4 37 46 1009.5 0 10.2 17.3 20.9 54.2 40.2 135.6
03 15:20 24.7 20 4.53 0.3 33 39 1009.5 0 10.6 17.5 21.6 56.0 42.5 143.4
03 15:10 24.5 20 4.48 0.1 37 41 1009.6 0 10.5 17.5 21.5 55.8 42.1 142.1
03 15:00 24.9 19 4.35 -0.3 32 43 1009.7 0 10.3 17.3 21.0 54.5 40.6 137.0
03 14:50 24.5 21 4.7 0.8 35 39 1009.8 0 11.0 17.8 22.2 57.5 44.3 149.7
03 14:40 24.7 21 4.75 0.9 30 33 1010 0 11.1 17.8 22.3 57.8 44.7 151.1
03 14:30 24.6 20 4.5 0.2 32 41 1010.1 0 10.6 17.5 21.6 55.9 42.3 142.7
03 14:20 24.3 22 4.87 1.2 30 35 1010.3 0 11.3 18.0 22.8 59.1 46.1 156.1
03 14:10 23.8 23 4.95 1.4 33 35 1010.3 0 11.5 18.2 23.1 60.1 47.1 159.8
03 14:00 24.3 24 5.31 2.5 30 35 1010.4 0 12.3 18.6 24.1 62.6 50.5 171.6
03 13:50 23.8 25 5.38 2.6 26 32 1010.6 0 12.4 18.8 24.5 63.6 51.5 175.2
03 13:40 23.6 26 5.53 3 28 33 1010.7 0 12.7 19.0 25.0 65.0 53.2 181.0
03 13:30 22.8 28 5.69 3.4 28 37 1010.8 0 13.1 19.4 25.7 67.0 55.4 188.7
03 13:20 22.5 28 5.59 3.1 22 28 1011 0 12.9 19.3 25.5 66.4 54.5 185.7
03 13:10 22.8 28 5.69 3.4 30 32 1011.1 0 13.1 19.4 25.7 67.0 55.4 188.7
03 13:00 22.6 30 6.03 4.2 28 37 1011.2 0 13.8 19.9 26.9 70.1 59.1 201.8
03 12:50 21.5 30 5.66 3.2 30 33 1011.4 0 13.1 19.6 26.1 67.8 56.0 190.6
03 12:40 21.9 31 5.98 4 30 35 1011.6 0 13.7 20.0 27.0 70.3 59.1 201.7
03 12:30 21.5 33 6.22 4.6 26 35 1011.8 0 14.2 20.4 27.9 72.7 62.0 211.9
03 12:20 21.8 31 5.95 3.9 30 33 1012.1 0 13.7 20.0 26.9 70.1 58.9 200.9
03 12:10 20.7 33 5.94 3.9 26 28 1012.3 0 13.7 20.2 27.2 71.0 59.6 203.3
03 12:00 20.1 36 6.26 4.6 26 33 1012.4 0 14.4 20.8 28.5 74.4 63.6 217.2
03 11:50 19.9 38 6.53 5.2 24 28 1012.9 0 14.9 21.2 29.5 77.1 66.8 228.4
03 11:40 19.6 39 6.58 5.3 28 30 1013 0 15.1 21.3 29.8 77.8 67.6 231.3
03 11:30 19.2 41 6.76 5.6 24 30 1013.1 0 15.5 21.7 30.6 79.9 70.0 239.6
03 11:20 18.4 43 6.76 5.6 26 28 1013.5 0 15.5 21.9 30.9 80.7 70.7 242.1

Last Refresh: 04-Aug-2020 05:47:46

Most of the information presented on this site is sourced from the Bureau of Meteorology.  Copyright in all material sourced from the Bureau of Meteorology resides with the Commonwealth of Australia.